Time;durP1;ratioP1;P1;durP2;ratioP2;P2;SDS_P1;SDS_P2;PMS_P1;PMS_P2;Temp;Humidity;BMP_temperature;BMP_pressure;BME280_temperature;BME280_humidity;BME280_pressure;Samples;Min_cycle;Max_cycle;Signal;HPM_P1;HPM_P2
2023/09/05 00:00:44;;;;;;;9.82;6.68;;;16.50;99.90;;;;;;5081091;28;20297;-72
2023/09/05 00:03:33;;;;;;;11.32;6.97;;;16.50;99.90;;;;;;5066394;28;20290;-72
2023/09/05 00:06:24;;;;;;;10.95;6.90;;;16.50;99.90;;;;;;5074524;28;20293;-71
2023/09/05 00:09:16;;;;;;;15.00;6.75;;;16.50;99.90;;;;;;5077383;28;20304;-72
2023/09/05 00:12:06;;;;;;;12.90;7.07;;;16.40;99.90;;;;;;5082836;28;20223;-72
2023/09/05 00:14:55;;;;;;;15.25;6.85;;;16.50;99.90;;;;;;5073645;28;20246;-71
2023/09/05 00:17:44;;;;;;;11.57;7.22;;;16.40;99.90;;;;;;5096923;28;20261;-72
2023/09/05 00:20:34;;;;;;;11.52;7.20;;;16.40;99.90;;;;;;5077326;28;20249;-71
2023/09/05 00:23:24;;;;;;;13.50;7.20;;;16.40;99.90;;;;;;5100547;28;20337;-70
2023/09/05 00:26:15;;;;;;;12.30;6.82;;;16.40;99.90;;;;;;5102144;28;20582;-72
2023/09/05 00:29:04;;;;;;;10.93;6.80;;;16.40;99.90;;;;;;5096470;28;20215;-69
2023/09/05 00:31:54;;;;;;;12.15;7.28;;;16.40;99.90;;;;;;5093740;28;20707;-75
2023/09/05 00:34:43;;;;;;;14.45;7.20;;;16.30;99.90;;;;;;5093038;28;20909;-70
2023/09/05 00:37:32;;;;;;;12.07;6.47;;;16.40;99.90;;;;;;5088305;28;20981;-72
2023/09/05 00:40:21;;;;;;;12.20;7.03;;;16.30;99.90;;;;;;5094534;28;20653;-71
2023/09/05 00:43:11;;;;;;;10.38;6.75;;;16.30;99.90;;;;;;5082213;28;20634;-71
2023/09/05 00:46:00;;;;;;;11.05;6.53;;;16.20;99.90;;;;;;5101964;28;20238;-70
2023/09/05 00:48:50;;;;;;;10.13;6.82;;;16.20;99.90;;;;;;5089483;28;20246;-71
2023/09/05 00:51:39;;;;;;;11.60;6.72;;;16.30;99.90;;;;;;5098012;28;20757;-71
2023/09/05 00:54:29;;;;;;;10.93;6.85;;;16.10;99.90;;;;;;5081227;28;20646;-71
2023/09/05 00:57:18;;;;;;;12.25;6.97;;;16.10;99.90;;;;;;5082256;28;20306;-72
2023/09/05 01:00:10;;;;;;;12.10;6.43;;;16.10;99.90;;;;;;5098047;28;20231;-72
2023/09/05 01:03:00;;;;;;;11.30;6.75;;;16.20;99.90;;;;;;5081120;28;20218;-72
2023/09/05 01:05:55;;;;;;;13.48;7.05;;;16.10;99.90;;;;;;5087607;28;20257;-70
2023/09/05 01:08:52;;;;;;;9.50;6.93;;;16.10;99.90;;;;;;5082765;28;20242;-71
2023/09/05 01:11:42;;;;;;;11.27;6.60;;;16.10;99.90;;;;;;5073750;28;20706;-71
2023/09/05 01:14:32;;;;;;;12.80;6.47;;;16.10;99.90;;;;;;5068767;28;20239;-70
2023/09/05 01:17:23;;;;;;;11.43;6.60;;;15.90;99.90;;;;;;5075205;28;20598;-71
2023/09/05 01:20:16;;;;;;;11.38;6.80;;;16.00;99.90;;;;;;5074596;28;20244;-72
2023/09/05 01:23:13;;;;;;;12.63;6.60;;;16.00;99.90;;;;;;5079287;28;20219;-72
2023/09/05 01:26:04;;;;;;;12.20;6.75;;;16.00;99.90;;;;;;5097068;28;20231;-72
2023/09/05 01:28:54;;;;;;;13.93;7.20;;;15.80;99.90;;;;;;5102648;28;20268;-68
2023/09/05 01:31:45;;;;;;;14.88;7.30;;;15.90;99.90;;;;;;5102434;28;20219;-68
2023/09/05 01:34:34;;;;;;;15.52;6.88;;;15.80;99.90;;;;;;5099373;28;20243;-70
2023/09/05 01:37:24;;;;;;;11.15;6.88;;;15.80;99.90;;;;;;5098664;27;20222;-70
2023/09/05 01:40:13;;;;;;;10.63;6.40;;;15.90;99.90;;;;;;5094575;28;20227;-72
2023/09/05 01:43:04;;;;;;;10.18;6.57;;;15.90;99.90;;;;;;5092662;28;20218;-72
2023/09/05 01:45:53;;;;;;;9.70;6.50;;;15.90;99.90;;;;;;5071526;28;20258;-70
2023/09/05 01:48:43;;;;;;;12.10;6.95;;;15.80;99.90;;;;;;5095220;28;20262;-70
2023/09/05 01:51:32;;;;;;;10.93;7.25;;;15.80;99.90;;;;;;5093185;28;20360;-72
2023/09/05 01:54:21;;;;;;;13.15;7.35;;;15.80;99.90;;;;;;5095241;28;20306;-72
2023/09/05 01:57:10;;;;;;;10.43;6.90;;;15.80;99.90;;;;;;5095785;28;20214;-72
2023/09/05 02:00:00;;;;;;;11.27;7.15;;;15.80;99.90;;;;;;5078051;28;20303;-72
2023/09/05 02:02:49;;;;;;;10.98;6.50;;;15.70;99.90;;;;;;5072762;28;20296;-71
2023/09/05 02:05:38;;;;;;;11.98;6.82;;;15.70;99.90;;;;;;5100810;28;20225;-71
2023/09/05 02:08:27;;;;;;;11.60;6.97;;;15.70;99.90;;;;;;5098703;28;21047;-70
2023/09/05 02:11:17;;;;;;;12.88;6.70;;;15.80;99.90;;;;;;5085451;28;20229;-68
2023/09/05 02:14:06;;;;;;;13.50;6.93;;;15.80;99.90;;;;;;5075621;28;20322;-71
2023/09/05 02:16:56;;;;;;;16.27;7.05;;;15.70;99.90;;;;;;5095355;28;20222;-70
2023/09/05 02:19:46;;;;;;;12.65;6.95;;;15.60;99.90;;;;;;5082610;28;20258;-71
2023/09/05 02:22:35;;;;;;;9.85;6.75;;;15.60;99.90;;;;;;5100034;28;20314;-71
2023/09/05 02:25:24;;;;;;;11.50;6.72;;;15.70;99.90;;;;;;5092392;28;20228;-71
2023/09/05 02:28:13;;;;;;;11.45;6.78;;;15.70;99.90;;;;;;5072347;28;20250;-72
2023/09/05 02:31:05;;;;;;;12.57;7.07;;;15.70;99.90;;;;;;5078806;28;20315;-70
2023/09/05 02:33:55;;;;;;;11.57;6.80;;;15.70;99.90;;;;;;5078378;28;20223;-70
2023/09/05 02:36:44;;;;;;;12.13;7.38;;;15.70;99.90;;;;;;5095822;28;20241;-71
2023/09/05 02:39:33;;;;;;;15.95;7.22;;;15.70;99.90;;;;;;5092621;28;20566;-72
2023/09/05 02:42:22;;;;;;;12.00;6.60;;;15.70;99.90;;;;;;5082745;28;20360;-70
2023/09/05 02:45:11;;;;;;;10.82;6.50;;;15.70;99.90;;;;;;5102886;28;20292;-72
2023/09/05 02:48:00;;;;;;;13.93;7.00;;;15.60;99.90;;;;;;5090706;28;20254;-71
2023/09/05 02:51:03;;;;;;;12.77;6.70;;;15.50;99.90;;;;;;5080871;28;20636;-68
2023/09/05 02:53:56;;;;;;;12.10;6.88;;;15.50;99.90;;;;;;5085270;28;20795;-70
2023/09/05 02:56:45;;;;;;;11.85;6.72;;;15.50;99.90;;;;;;5098574;28;20226;-71
2023/09/05 02:59:35;;;;;;;16.58;7.00;;;15.40;99.90;;;;;;5092967;28;20241;-70
2023/09/05 03:02:24;;;;;;;12.30;7.13;;;15.40;99.90;;;;;;5094331;28;20309;-72
2023/09/05 03:05:13;;;;;;;9.88;6.70;;;15.30;99.90;;;;;;5092896;28;20223;-71
2023/09/05 03:08:06;;;;;;;12.43;6.97;;;15.50;99.90;;;;;;5103634;27;20222;-72
2023/09/05 03:10:58;;;;;;;9.15;6.65;;;15.40;99.90;;;;;;5095567;28;20227;-72
2023/09/05 03:13:50;;;;;;;11.88;6.35;;;15.40;99.90;;;;;;5075165;28;20826;-70
2023/09/05 03:16:39;;;;;;;11.45;7.05;;;15.30;99.90;;;;;;5080897;28;20218;-71
2023/09/05 03:19:29;;;;;;;12.38;6.65;;;15.30;99.90;;;;;;5084903;28;20353;-72
2023/09/05 03:22:17;;;;;;;11.35;6.70;;;15.40;99.90;;;;;;5081908;28;20227;-73
2023/09/05 03:25:09;;;;;;;15.13;7.00;;;15.40;99.90;;;;;;5097341;28;20252;-71
2023/09/05 03:27:57;;;;;;;10.60;6.82;;;15.40;99.90;;;;;;5097850;28;20663;-70
2023/09/05 03:30:46;;;;;;;12.98;7.25;;;15.30;99.90;;;;;;5100884;28;20254;-74
2023/09/05 03:33:35;;;;;;;10.05;6.70;;;15.30;99.90;;;;;;5090913;28;20227;-74
2023/09/05 03:36:26;;;;;;;12.80;6.82;;;15.40;99.90;;;;;;5087160;28;20267;-72
2023/09/05 03:39:16;;;;;;;14.95;6.60;;;15.30;99.90;;;;;;5095472;28;20636;-74
2023/09/05 03:42:07;;;;;;;10.82;6.82;;;15.20;99.90;;;;;;5077897;28;20697;-73
2023/09/05 03:44:55;;;;;;;16.30;6.82;;;15.20;99.90;;;;;;5078297;28;20280;-73
2023/09/05 03:47:44;;;;;;;12.07;6.63;;;15.20;99.90;;;;;;5079770;28;20302;-72
2023/09/05 03:50:48;;;;;;;16.63;6.60;;;15.30;99.90;;;;;;5096296;28;22099;-73
2023/09/05 03:53:37;;;;;;;14.45;6.72;;;15.30;99.90;;;;;;5093938;28;20472;-73
2023/09/05 03:56:27;;;;;;;13.68;6.75;;;15.30;99.90;;;;;;5072160;28;20237;-71
2023/09/05 03:59:18;;;;;;;11.07;7.03;;;15.20;99.90;;;;;;5073822;28;20212;-72
2023/09/05 04:02:06;;;;;;;12.18;7.25;;;15.20;99.90;;;;;;5069602;28;20212;-69
2023/09/05 04:04:55;;;;;;;12.63;6.93;;;15.30;99.90;;;;;;5077723;28;20569;-71
2023/09/05 04:07:44;;;;;;;12.70;6.95;;;15.30;99.90;;;;;;5065119;28;20216;-72
2023/09/05 04:10:34;;;;;;;13.77;6.50;;;15.30;99.90;;;;;;5064711;28;20224;-71
2023/09/05 04:13:23;;;;;;;15.68;7.15;;;15.30;99.90;;;;;;5070641;28;20223;-73
2023/09/05 04:16:13;;;;;;;11.90;7.38;;;15.40;99.90;;;;;;5069310;28;20224;-73
2023/09/05 04:19:03;;;;;;;14.88;7.28;;;15.30;99.90;;;;;;5087140;28;20215;-72
2023/09/05 04:21:52;;;;;;;16.20;7.90;;;15.40;99.90;;;;;;5094337;28;20587;-71
2023/09/05 04:24:41;;;;;;;19.85;8.50;;;15.30;99.90;;;;;;5077450;28;20381;-72
2023/09/05 04:27:30;;;;;;;15.98;8.20;;;15.30;99.90;;;;;;5076021;28;20235;-70
2023/09/05 04:30:19;;;;;;;15.32;8.30;;;15.40;99.90;;;;;;5071380;28;20218;-70
2023/09/05 04:33:10;;;;;;;10.45;7.15;;;15.50;99.90;;;;;;5069125;28;20679;-71
2023/09/05 04:35:59;;;;;;;15.27;7.30;;;15.50;99.90;;;;;;5082958;28;20219;-72
2023/09/05 04:38:49;;;;;;;12.23;7.35;;;15.60;99.90;;;;;;5090527;28;20230;-73
2023/09/05 04:41:39;;;;;;;12.20;8.23;;;15.60;99.90;;;;;;5090527;28;20322;-72
2023/09/05 04:44:28;;;;;;;13.10;7.43;;;15.40;99.90;;;;;;5075665;28;20215;-72
2023/09/05 04:47:24;;;;;;;14.93;7.32;;;15.40;99.90;;;;;;5094270;28;20689;-71
2023/09/05 04:50:17;;;;;;;11.13;7.05;;;15.50;99.90;;;;;;5084299;28;20230;-73
2023/09/05 04:53:06;;;;;;;12.27;8.20;;;15.50;99.90;;;;;;5096336;28;20223;-71
2023/09/05 04:55:56;;;;;;;15.43;7.78;;;15.50;99.90;;;;;;5097908;28;20234;-70
2023/09/05 04:58:45;;;;;;;13.75;7.75;;;15.50;99.90;;;;;;5078912;28;20231;-71
2023/09/05 05:01:34;;;;;;;11.27;7.13;;;15.50;99.90;;;;;;5087079;28;20918;-69
2023/09/05 05:04:23;;;;;;;12.43;7.53;;;15.60;99.90;;;;;;5094266;28;20238;-72
2023/09/05 05:07:13;;;;;;;15.02;7.85;;;15.60;99.90;;;;;;5079431;28;20756;-71
2023/09/05 05:10:03;;;;;;;10.70;7.38;;;15.80;99.90;;;;;;5076105;28;20299;-71
2023/09/05 05:12:52;;;;;;;11.40;7.65;;;15.90;99.90;;;;;;5076203;28;20231;-70
2023/09/05 05:15:41;;;;;;;10.98;7.03;;;16.10;99.90;;;;;;5075433;28;20230;-70
2023/09/05 05:18:30;;;;;;;12.73;7.30;;;16.10;99.90;;;;;;5079818;28;20234;-71
2023/09/05 05:21:19;;;;;;;13.38;7.15;;;16.20;99.90;;;;;;5077794;28;20228;-71
2023/09/05 05:24:10;;;;;;;12.40;7.70;;;16.30;99.90;;;;;;5073903;28;20913;-70
2023/09/05 05:26:59;;;;;;;14.68;7.97;;;16.40;99.90;;;;;;5082954;28;20235;-71
2023/09/05 05:29:49;;;;;;;11.60;7.70;;;16.50;99.90;;;;;;5081624;28;20227;-71
2023/09/05 05:32:38;;;;;;;13.02;7.43;;;16.70;99.90;;;;;;5074400;28;20351;-71
2023/09/05 05:35:27;;;;;;;15.75;7.75;;;16.80;99.90;;;;;;5093420;28;20223;-69
2023/09/05 05:38:16;;;;;;;15.80;9.13;;;16.90;99.90;;;;;;5093579;28;20768;-69
2023/09/05 05:41:09;;;;;;;14.57;9.52;;;16.90;99.90;;;;;;5097629;28;20721;-70
2023/09/05 05:43:58;;;;;;;16.30;8.07;;;16.90;99.90;;;;;;5083230;28;20234;-71
2023/09/05 05:46:46;;;;;;;11.07;8.02;;;17.00;99.90;;;;;;5094466;28;20264;-70
2023/09/05 05:49:35;;;;;;;12.57;7.45;;;17.10;99.90;;;;;;5071091;28;20223;-70
2023/09/05 05:52:24;;;;;;;13.93;7.82;;;17.20;99.90;;;;;;5092938;28;20231;-72
2023/09/05 05:55:13;;;;;;;12.00;7.55;;;17.30;99.90;;;;;;5093988;28;20715;-70
2023/09/05 05:58:05;;;;;;;16.20;7.57;;;17.40;99.90;;;;;;5090283;28;20351;-71
2023/09/05 06:00:55;;;;;;;12.80;7.13;;;17.50;99.90;;;;;;5088909;27;20227;-71
2023/09/05 06:03:44;;;;;;;12.35;8.65;;;17.60;99.90;;;;;;5094096;28;20230;-70
2023/09/05 06:06:33;;;;;;;14.20;7.38;;;17.70;99.90;;;;;;5099670;28;20223;-72
2023/09/05 06:09:22;;;;;;;18.02;7.20;;;17.90;99.90;;;;;;5092575;28;20223;-71
2023/09/05 06:12:11;;;;;;;15.82;6.50;;;18.00;99.90;;;;;;5096090;28;20238;-71
2023/09/05 06:15:04;;;;;;;11.48;6.22;;;18.10;99.90;;;;;;5072847;28;20247;-70
2023/09/05 06:17:54;;;;;;;10.88;5.55;;;18.30;99.90;;;;;;5086107;28;20532;-71
2023/09/05 06:20:42;;;;;;;9.57;5.75;;;18.90;99.90;;;;;;5078043;28;20845;-72
2023/09/05 06:23:32;;;;;;;10.45;6.57;;;19.30;99.90;;;;;;5074651;28;20227;-72
2023/09/05 06:26:21;;;;;;;13.90;6.30;;;19.30;99.90;;;;;;5070337;28;20220;-71
2023/09/05 06:29:10;;;;;;;12.75;6.55;;;19.10;99.90;;;;;;5082041;28;20329;-72
2023/09/05 06:32:00;;;;;;;11.95;6.20;;;19.00;99.90;;;;;;5072483;28;20227;-69
2023/09/05 06:34:50;;;;;;;10.70;6.30;;;19.00;99.90;;;;;;5097516;28;20721;-69
2023/09/05 06:37:39;;;;;;;10.15;5.68;;;19.00;99.90;;;;;;5085271;28;20894;-72
2023/09/05 06:40:28;;;;;;;10.02;5.60;;;18.90;99.90;;;;;;5096401;28;20226;-71
2023/09/05 06:43:17;;;;;;;10.38;5.45;;;18.90;99.90;;;;;;5087016;28;20254;-73
2023/09/05 06:46:08;;;;;;;9.73;5.85;;;18.90;99.90;;;;;;5083363;28;20232;-72
2023/09/05 06:48:59;;;;;;;12.05;6.15;;;19.00;99.90;;;;;;5063177;28;20309;-73
2023/09/05 06:51:48;;;;;;;8.45;5.30;;;19.10;99.90;;;;;;5075104;28;20252;-74
2023/09/05 06:54:37;;;;;;;9.63;5.13;;;19.20;99.90;;;;;;5087086;28;20299;-74
2023/09/05 06:57:27;;;;;;;9.43;5.25;;;19.30;99.90;;;;;;5092589;28;20234;-73
2023/09/05 07:00:27;;;;;;;12.85;5.03;;;19.40;99.90;;;;;;5093419;28;20223;-74
2023/09/05 07:03:16;;;;;;;10.77;5.07;;;19.60;99.90;;;;;;5095336;28;20317;-75
2023/09/05 07:06:07;;;;;;;11.18;4.72;;;19.90;99.90;;;;;;5087646;28;20211;-73
2023/09/05 07:08:56;;;;;;;12.02;4.75;;;20.10;99.90;;;;;;5094119;28;20280;-73
2023/09/05 07:11:45;;;;;;;7.70;4.95;;;20.20;99.90;;;;;;5074712;28;20337;-74
2023/09/05 07:14:34;;;;;;;9.43;4.00;;;20.50;99.90;;;;;;5082045;28;20233;-73
2023/09/05 07:17:23;;;;;;;7.70;4.05;;;20.50;99.90;;;;;;5093913;28;20612;-72
2023/09/05 07:20:12;;;;;;;12.05;4.55;;;20.50;99.90;;;;;;5097128;28;20242;-70
2023/09/05 07:23:04;;;;;;;10.35;4.60;;;20.50;99.90;;;;;;5095326;28;20234;-72
2023/09/05 07:25:54;;;;;;;11.32;4.60;;;20.60;99.90;;;;;;5089963;28;20595;-71
2023/09/05 07:28:46;;;;;;;10.25;5.47;;;20.90;99.90;;;;;;5073985;28;20755;-72
2023/09/05 07:31:35;;;;;;;10.02;4.30;;;21.00;99.90;;;;;;5081414;28;20219;-73
2023/09/05 07:34:26;;;;;;;9.85;4.25;;;21.20;99.90;;;;;;5093592;28;20219;-71
2023/09/05 07:37:16;;;;;;;9.98;4.43;;;21.30;99.90;;;;;;5094584;28;20258;-71
2023/09/05 07:40:07;;;;;;;7.63;3.60;;;21.40;99.90;;;;;;5091310;28;20254;-72
2023/09/05 07:42:56;;;;;;;5.47;3.47;;;21.60;99.90;;;;;;5091356;28;20223;-72
2023/09/05 07:45:45;;;;;;;7.30;3.35;;;21.80;99.90;;;;;;5091100;28;20606;-73
2023/09/05 07:48:34;;;;;;;8.80;3.40;;;21.90;99.90;;;;;;5092558;28;20226;-72
2023/09/05 07:51:23;;;;;;;8.07;3.30;;;22.00;99.90;;;;;;5076581;28;20302;-71
2023/09/05 07:54:15;;;;;;;9.85;3.35;;;22.00;99.90;;;;;;5097934;28;20356;-71
2023/09/05 07:57:06;;;;;;;6.75;3.08;;;22.20;99.90;;;;;;5093148;28;20401;-71
2023/09/05 07:59:55;;;;;;;8.80;3.38;;;22.60;99.90;;;;;;5087626;28;20265;-72
2023/09/05 08:02:44;;;;;;;8.35;3.53;;;22.90;99.90;;;;;;5071553;28;20214;-72
2023/09/05 08:05:33;;;;;;;5.85;3.35;;;23.00;99.90;;;;;;5057333;28;20710;-71
2023/09/05 08:08:23;;;;;;;8.93;3.78;;;23.00;99.90;;;;;;5074370;28;20223;-71
2023/09/05 08:11:13;;;;;;;6.13;3.13;;;23.20;99.90;;;;;;5074149;28;20222;-71
2023/09/05 08:14:04;;;;;;;6.82;3.10;;;23.60;99.90;;;;;;5074890;28;20223;-69
2023/09/05 08:16:53;;;;;;;5.00;3.30;;;23.80;89.10;;;;;;5076243;28;20238;-71
2023/09/05 08:19:42;;;;;;;8.75;3.13;;;24.00;46.30;;;;;;5093642;28;20279;-71
2023/09/05 08:22:32;;;;;;;8.57;3.92;;;24.30;81.50;;;;;;5078114;28;20219;-69
2023/09/05 08:25:23;;;;;;;5.50;3.25;;;24.90;23.70;;;;;;5079504;28;20223;-71
2023/09/05 08:28:14;;;;;;;7.60;3.13;;;25.10;1.00;;;;;;5085805;28;20219;-74
2023/09/05 08:31:04;;;;;;;5.85;3.63;;;25.30;1.00;;;;;;5091842;28;20802;-72
2023/09/05 08:34:06;;;;;;;6.75;3.60;;;25.60;1.00;;;;;;5064852;28;20569;-72
2023/09/05 08:36:57;;;;;;;5.07;3.33;;;25.90;1.00;;;;;;5074990;28;20489;-73
2023/09/05 08:39:46;;;;;;;7.45;3.05;;;26.20;1.00;;;;;;5076002;28;20600;-72
2023/09/05 08:42:38;;;;;;;7.57;3.40;;;26.60;1.00;;;;;;5080984;28;20224;-72
2023/09/05 08:45:30;;;;;;;8.50;4.18;;;26.90;1.00;;;;;;5093986;28;20239;-74
2023/09/05 08:48:20;;;;;;;6.30;3.60;;;27.00;99.90;;;;;;5091333;28;21077;-76
2023/09/05 08:51:13;;;;;;;7.30;3.60;;;27.00;1.00;;;;;;5073939;28;20230;-75
2023/09/05 08:54:06;;;;;;;9.45;4.35;;;27.30;99.90;;;;;;5078889;28;21023;-75
2023/09/05 08:56:55;;;;;;;4.93;3.35;;;28.00;1.00;;;;;;5069001;28;20733;-76
2023/09/05 08:59:44;;;;;;;4.35;3.03;;;27.90;1.00;;;;;;5072747;28;20219;-74
2023/09/05 09:02:36;;;;;;;5.28;3.53;;;28.10;1.00;;;;;;5073690;28;20232;-75
2023/09/05 09:05:27;;;;;;;4.63;3.25;;;27.80;99.90;;;;;;5074032;28;20868;-74
2023/09/05 09:08:18;;;;;;;6.45;3.15;;;27.70;1.00;;;;;;5075809;28;20219;-74
2023/09/05 09:11:08;;;;;;;7.35;3.38;;;27.90;99.90;;;;;;5093688;28;20218;-75
2023/09/05 09:14:00;;;;;;;4.80;3.15;;;28.00;1.00;;;;;;5092953;28;20231;-75
2023/09/05 09:16:49;;;;;;;6.88;3.38;;;27.70;1.00;;;;;;5097181;28;20222;-76
2023/09/05 09:19:39;;;;;;;6.85;3.58;;;26.60;1.00;;;;;;5076646;28;20926;-77
2023/09/05 09:22:29;;;;;;;7.10;3.22;;;25.90;1.00;;;;;;5079751;28;20230;-73
2023/09/05 09:25:20;;;;;;;6.43;3.47;;;25.40;1.00;;;;;;5081780;28;20230;-73
2023/09/05 09:28:10;;;;;;;5.22;3.05;;;25.00;1.00;;;;;;5099101;28;20288;-71
2023/09/05 09:31:01;;;;;;;6.78;2.97;;;24.70;1.00;;;;;;5095566;28;20255;-72
2023/09/05 09:33:56;;;;;;;8.13;3.28;;;24.50;1.00;;;;;;5081400;28;20223;-72
2023/09/05 09:36:52;;;;;;;6.53;3.58;;;24.30;1.00;;;;;;5099973;28;20773;-73
2023/09/05 09:39:42;;;;;;;6.00;4.05;;;24.10;1.00;;;;;;5098501;28;20222;-72
2023/09/05 09:42:31;;;;;;;10.57;3.45;;;24.00;1.00;;;;;;5082603;28;20300;-74
2023/09/05 09:45:20;;;;;;;5.72;3.60;;;24.00;7.40;;;;;;5093482;28;20708;-72
2023/09/05 09:48:11;;;;;;;5.35;3.00;;;23.80;1.00;;;;;;5090445;28;20609;-74
2023/09/05 09:51:00;;;;;;;5.57;3.22;;;23.40;1.00;;;;;;5097757;28;20739;-72
2023/09/05 09:53:51;;;;;;;7.28;3.22;;;23.40;19.40;;;;;;5094928;28;20219;-72
2023/09/05 09:56:43;;;;;;;12.05;3.33;;;23.50;1.00;;;;;;5090095;28;20984;-74
2023/09/05 09:59:35;;;;;;;6.10;3.33;;;23.60;1.00;;;;;;5098592;28;20229;-74
2023/09/05 10:02:26;;;;;;;6.63;3.28;;;23.60;1.00;;;;;;5091508;28;20613;-73
2023/09/05 10:05:19;;;;;;;9.15;3.45;;;23.70;1.00;;;;;;5088278;28;20227;-72
2023/09/05 10:08:10;;;;;;;5.00;3.58;;;23.60;22.20;;;;;;5096018;28;20698;-74
2023/09/05 10:10:58;;;;;;;6.63;3.60;;;23.60;13.10;;;;;;5078632;28;20918;-74
2023/09/05 10:13:50;;;;;;;5.03;3.00;;;23.50;15.10;;;;;;5093555;28;21013;-73
2023/09/05 10:16:42;;;;;;;9.13;3.40;;;23.60;1.00;;;;;;5094930;28;20228;-75
2023/09/05 10:19:32;;;;;;;4.43;2.95;;;23.50;16.10;;;;;;5096255;28;20719;-74
2023/09/05 10:22:22;;;;;;;6.03;3.25;;;23.50;18.30;;;;;;5093973;28;20373;-73
2023/09/05 10:25:13;;;;;;;5.55;3.00;;;23.50;1.00;;;;;;5097024;28;20265;-74
2023/09/05 10:28:02;;;;;;;10.70;3.15;;;23.50;1.00;;;;;;5079853;28;20220;-72
2023/09/05 10:30:55;;;;;;;6.53;3.45;;;23.40;1.00;;;;;;5100028;28;20287;-74
2023/09/05 10:33:45;;;;;;;8.73;2.83;;;23.30;1.00;;;;;;5093076;28;20223;-71
2023/09/05 10:36:41;;;;;;;6.20;2.63;;;23.30;1.00;;;;;;5074113;28;20221;-73
2023/09/05 10:39:33;;;;;;;5.43;2.78;;;23.10;1.00;;;;;;5095987;28;20781;-74
2023/09/05 10:42:32;;;;;;;7.30;2.88;;;23.20;1.00;;;;;;5097349;28;20226;-73
2023/09/05 10:45:32;;;;;;;7.97;3.40;;;23.20;1.00;;;;;;5078643;28;20613;-74
2023/09/05 10:48:38;;;;;;;9.75;3.60;;;23.30;1.00;;;;;;5088607;28;20234;-74
2023/09/05 10:51:26;;;;;;;8.18;4.10;;;23.30;3.10;;;;;;5093014;28;20231;-73
2023/09/05 10:54:30;;;;;;;5.07;3.05;;;23.30;39.90;;;;;;5092002;28;21018;-72
2023/09/05 10:57:37;;;;;;;7.75;3.25;;;23.30;48.90;;;;;;5091234;28;20218;-74
2023/09/05 11:00:37;;;;;;;4.93;2.90;;;23.30;36.10;;;;;;5092768;28;20445;-75
2023/09/05 11:03:36;;;;;;;7.47;3.20;;;23.30;1.00;;;;;;5081917;28;20230;-75
2023/09/05 11:06:26;;;;;;;5.72;3.13;;;23.30;1.00;;;;;;5080902;28;20220;-73
2023/09/05 11:09:15;;;;;;;7.28;3.00;;;23.30;5.60;;;;;;5083582;28;20219;-74
2023/09/05 11:12:06;;;;;;;4.43;2.80;;;23.20;20.60;;;;;;5099201;28;20808;-72
2023/09/05 11:14:55;;;;;;;5.45;3.10;;;23.30;18.10;;;;;;5078897;28;20215;-76
2023/09/05 11:17:58;;;;;;;5.47;2.85;;;23.40;1.00;;;;;;5074663;28;20227;-74
2023/09/05 11:20:50;;;;;;;5.60;2.90;;;23.20;1.00;;;;;;5090450;28;20483;-76
2023/09/05 11:23:52;;;;;;;5.55;2.97;;;23.30;1.00;;;;;;5092182;28;20302;-76
2023/09/05 11:26:41;;;;;;;5.07;3.88;;;23.30;1.00;;;;;;5094007;28;20229;-76
2023/09/05 11:29:30;;;;;;;9.00;3.00;;;23.40;1.00;;;;;;5092952;28;20318;-73
2023/09/05 11:32:19;;;;;;;6.13;3.03;;;23.30;1.00;;;;;;5093048;28;20785;-75
2023/09/05 11:35:10;;;;;;;7.68;3.20;;;23.40;1.00;;;;;;5091821;28;20221;-75
2023/09/05 11:38:03;;;;;;;8.05;3.70;;;23.30;1.00;;;;;;5089259;28;20243;-75
2023/09/05 11:40:52;;;;;;;4.80;2.90;;;23.20;1.00;;;;;;5092334;28;20222;-75
2023/09/05 11:43:47;;;;;;;7.93;3.40;;;23.20;1.00;;;;;;5096007;28;20613;-75
2023/09/05 11:46:40;;;;;;;6.13;3.03;;;23.20;1.00;;;;;;5097550;28;20639;-75
2023/09/05 11:49:30;;;;;;;7.00;3.30;;;23.10;1.00;;;;;;5097814;28;20306;-76
2023/09/05 11:52:20;;;;;;;7.35;2.80;;;23.20;1.00;;;;;;5092782;28;20211;-75
2023/09/05 11:55:11;;;;;;;5.00;2.75;;;23.00;1.00;;;;;;5097331;28;20222;-75
2023/09/05 11:58:02;;;;;;;5.13;2.70;;;23.00;1.00;;;;;;5056651;28;20231;-73
2023/09/05 12:00:55;;;;;;;7.35;3.20;;;23.10;1.00;;;;;;5084238;28;20248;-74
2023/09/05 12:03:44;;;;;;;7.32;3.08;;;23.20;1.00;;;;;;5071306;28;20234;-76
2023/09/05 12:06:35;;;;;;;6.88;2.90;;;23.20;1.00;;;;;;5080330;28;20594;-74
2023/09/05 12:09:24;;;;;;;6.85;3.20;;;23.20;1.00;;;;;;5096983;28;20223;-76
2023/09/05 12:12:19;;;;;;;5.78;3.08;;;23.30;1.00;;;;;;5083994;28;21411;-76
2023/09/05 12:15:09;;;;;;;5.00;3.45;;;23.40;1.00;;;;;;5079819;28;20346;-73
2023/09/05 12:17:59;;;;;;;4.80;2.92;;;23.30;1.00;;;;;;5059217;28;20306;-74
2023/09/05 12:20:56;;;;;;;4.75;3.30;;;23.20;1.00;;;;;;5073415;28;20215;-80
2023/09/05 12:23:45;;;;;;;4.80;3.30;;;23.10;1.00;;;;;;5096830;28;20772;-73
2023/09/05 12:26:40;;;;;;;5.60;3.20;;;23.20;1.00;;;;;;5079101;28;20591;-72
2023/09/05 12:29:41;;;;;;;5.22;3.00;;;23.10;1.00;;;;;;5068711;28;20568;-73
2023/09/05 12:32:31;;;;;;;5.22;3.00;;;23.00;1.00;;;;;;5068031;28;20346;-72
2023/09/05 12:35:25;;;;;;;5.97;3.05;;;23.00;1.00;;;;;;5071195;28;20277;-70
2023/09/05 12:38:19;;;;;;;7.05;3.78;;;23.10;1.00;;;;;;5070107;28;20269;-71
2023/09/05 12:41:08;;;;;;;7.40;3.45;;;23.10;1.00;;;;;;5071903;28;20261;-72
2023/09/05 12:43:58;;;;;;;6.25;3.22;;;23.20;1.00;;;;;;5085358;28;20856;-73
2023/09/05 12:46:49;;;;;;;6.38;3.10;;;23.10;99.90;;;;;;5074532;28;20334;-73
2023/09/05 12:49:41;;;;;;;7.30;3.17;;;23.10;1.00;;;;;;5086958;28;20317;-71
2023/09/05 12:52:37;;;;;;;5.00;3.00;;;23.10;1.00;;;;;;5088861;28;20586;-72
2023/09/05 12:55:26;;;;;;;7.13;3.38;;;23.10;1.00;;;;;;5093176;28;20257;-72
2023/09/05 12:58:17;;;;;;;7.43;3.20;;;23.10;1.00;;;;;;5092017;28;20787;-70
2023/09/05 13:01:07;;;;;;;6.00;3.15;;;23.10;1.00;;;;;;5092722;28;20230;-74
2023/09/05 13:04:00;;;;;;;5.68;2.95;;;23.10;1.00;;;;;;5073523;28;20271;-74
2023/09/05 13:06:49;;;;;;;8.48;3.72;;;23.20;1.00;;;;;;5073477;28;20227;-73
2023/09/05 13:09:39;;;;;;;7.82;3.35;;;23.10;1.00;;;;;;5080058;28;20223;-72
2023/09/05 13:12:28;;;;;;;4.50;3.33;;;23.10;1.00;;;;;;5070069;28;20336;-71
2023/09/05 13:15:18;;;;;;;5.47;3.40;;;23.10;99.90;;;;;;5084535;28;20572;-73
2023/09/05 13:18:07;;;;;;;5.45;2.95;;;23.10;1.00;;;;;;5075224;28;20239;-74
2023/09/05 13:20:59;;;;;;;6.10;3.30;;;23.10;1.00;;;;;;5067655;28;20223;-72
2023/09/05 13:23:48;;;;;;;8.45;2.95;;;23.00;1.00;;;;;;5096488;28;20270;-73
2023/09/05 13:26:37;;;;;;;4.63;2.85;;;23.00;1.00;;;;;;5074411;28;20223;-72
2023/09/05 13:29:26;;;;;;;7.38;3.45;;;23.00;1.00;;;;;;5096215;28;20217;-73
2023/09/05 13:32:21;;;;;;;4.75;2.83;;;23.00;1.00;;;;;;5098101;28;20310;-73
2023/09/05 13:35:13;;;;;;;3.90;2.70;;;23.00;1.00;;;;;;5087279;28;20214;-72
2023/09/05 13:38:06;;;;;;;5.20;3.13;;;23.00;1.00;;;;;;5074474;28;20371;-71
2023/09/05 13:40:56;;;;;;;5.18;2.88;;;23.00;1.00;;;;;;5096475;28;20234;-72
2023/09/05 13:43:45;;;;;;;5.00;2.97;;;23.10;1.00;;;;;;5101082;28;20230;-73
2023/09/05 13:46:34;;;;;;;4.60;2.83;;;23.10;1.00;;;;;;5094745;28;20577;-71
2023/09/05 13:49:24;;;;;;;5.28;3.00;;;23.10;99.90;;;;;;5096912;28;20318;-73
2023/09/05 13:52:13;;;;;;;4.70;2.88;;;23.10;99.90;;;;;;5096111;28;20219;-75
2023/09/05 13:55:17;;;;;;;4.05;2.65;;;23.00;1.00;;;;;;5077253;28;20227;-73
2023/09/05 13:58:07;;;;;;;4.05;3.05;;;23.10;1.00;;;;;;5093799;28;20634;-73
2023/09/05 14:00:56;;;;;;;8.00;3.10;;;23.00;1.00;;;;;;5079525;28;20220;-71
2023/09/05 14:03:46;;;;;;;10.52;3.40;;;23.00;1.00;;;;;;5089601;28;20725;-71
2023/09/05 14:06:35;;;;;;;6.78;3.00;;;23.00;1.00;;;;;;5086561;28;20254;-72
2023/09/05 14:09:24;;;;;;;5.50;3.17;;;23.00;1.00;;;;;;5078334;28;20264;-72
2023/09/05 14:12:18;;;;;;;5.05;2.97;;;23.00;1.00;;;;;;5082241;28;20222;-71
2023/09/05 14:15:08;;;;;;;4.45;2.88;;;23.00;1.00;;;;;;5097973;28;20236;-69
2023/09/05 14:18:00;;;;;;;5.70;2.90;;;23.00;1.00;;;;;;5097313;28;20246;-74
2023/09/05 14:20:52;;;;;;;6.18;2.90;;;23.00;1.00;;;;;;5080131;28;20236;-70
2023/09/05 14:23:41;;;;;;;5.95;3.33;;;23.00;1.00;;;;;;5061949;28;20765;-69
2023/09/05 14:26:30;;;;;;;9.07;3.08;;;22.90;1.00;;;;;;5056431;28;20238;-71
2023/09/05 14:29:26;;;;;;;5.47;3.00;;;22.90;1.00;;;;;;5070472;28;21219;-71
2023/09/05 14:32:18;;;;;;;7.03;3.42;;;23.00;99.90;;;;;;5072157;28;20232;-72
2023/09/05 14:35:08;;;;;;;6.07;3.10;;;22.90;99.90;;;;;;5077461;28;20619;-73
2023/09/05 14:37:57;;;;;;;10.05;3.20;;;22.90;99.90;;;;;;5090895;28;20555;-72
2023/09/05 14:40:46;;;;;;;7.43;3.88;;;22.90;99.90;;;;;;5050129;28;20260;-72
2023/09/05 14:43:35;;;;;;;7.47;3.47;;;22.90;1.00;;;;;;5085187;28;20218;-73
2023/09/05 14:46:27;;;;;;;7.15;3.22;;;23.00;1.00;;;;;;5092093;28;20230;-73